createdAt,value
2023-04-12T00:01:01.707Z,95219.78
2023-04-12T00:03:29.517Z,95214.88
2023-04-12T00:05:56.495Z,95208.06
2023-04-12T00:08:26.740Z,95202.69
2023-04-12T00:10:53.838Z,95199.53
2023-04-12T00:13:20.919Z,95193.63
2023-04-12T00:15:47.898Z,95189.34
2023-04-12T00:18:14.828Z,95180.69
2023-04-12T00:20:41.777Z,95174.75
2023-04-12T00:23:09.978Z,95170.31
2023-04-12T00:25:39.418Z,95167.53
2023-04-12T00:28:06.527Z,95162.13
2023-04-12T00:30:33.552Z,95159.13
2023-04-12T00:33:00.598Z,95149.72
2023-04-12T00:35:27.439Z,95139.94
2023-04-12T00:37:55.077Z,95148.28
2023-04-12T00:40:22.479Z,95136.09
2023-04-12T00:42:49.412Z,95138.22
2023-04-12T00:45:16.545Z,95144.91
2023-04-12T00:47:43.648Z,95146.06
2023-04-12T00:50:11.502Z,95135.34
2023-04-12T00:52:39.279Z,95123.06
2023-04-12T00:55:07.523Z,95115.41
2023-04-12T00:57:39.565Z,95108.47
2023-04-12T01:00:14.241Z,95100.66
2023-04-12T01:02:42.999Z,95097.38
2023-04-12T01:05:15.030Z,95091.97
2023-04-12T01:08:07.650Z,95089.38
2023-04-12T01:10:56.327Z,95082.09
2023-04-12T01:13:35.393Z,95087.44
2023-04-12T01:16:17.374Z,95093.91
2023-04-12T01:18:46.135Z,95085.31
2023-04-12T01:21:24.738Z,95079.41
2023-04-12T01:24:23.976Z,95072.81
2023-04-12T01:26:52.335Z,95063.41
2023-04-12T01:29:21.122Z,95056.31
2023-04-12T01:31:55.540Z,95064.97
2023-04-12T01:34:22.515Z,95061.41
2023-04-12T01:36:49.624Z,95067.19
2023-04-12T01:39:16.513Z,95072.59
2023-04-12T01:41:45.899Z,95069.44
2023-04-12T01:44:13.227Z,95074.66
2023-04-12T01:46:40.298Z,95059.59
2023-04-12T01:49:07.515Z,95072.34
2023-04-12T01:51:37.315Z,95063.00
2023-04-12T01:54:11.690Z,95059.56
2023-04-12T01:56:41.028Z,95065.78
2023-04-12T01:59:08.310Z,95060.47
2023-04-12T02:01:35.347Z,95047.00
2023-04-12T02:04:02.706Z,95053.53
2023-04-12T02:06:30.101Z,95048.16
2023-04-12T02:09:04.805Z,95034.09
2023-04-12T02:11:31.800Z,95039.72
2023-04-12T02:13:58.910Z,95043.75
2023-04-12T02:16:29.650Z,95038.38
2023-04-12T02:18:57.595Z,95013.34
2023-04-12T02:21:26.520Z,95015.81
2023-04-12T02:23:53.412Z,95027.13
2023-04-12T02:26:21.062Z,95007.66
2023-04-12T02:28:48.182Z,95003.78
2023-04-12T02:31:15.917Z,95013.50
2023-04-12T02:33:42.898Z,95010.00
2023-04-12T02:36:11.578Z,95004.72
2023-04-12T02:38:38.568Z,94996.59
2023-04-12T02:41:05.841Z,94985.19
2023-04-12T02:43:33.487Z,94971.69
2023-04-12T02:46:00.639Z,94965.50
2023-04-12T02:48:27.538Z,94970.88
2023-04-12T02:50:54.782Z,94969.81
2023-04-12T02:53:21.991Z,94966.03
2023-04-12T02:55:48.959Z,94965.16
2023-04-12T02:58:16.928Z,94974.81
2023-04-12T03:00:46.172Z,94970.88
2023-04-12T03:03:13.204Z,94978.81
2023-04-12T03:05:40.282Z,94968.13
2023-04-12T03:08:07.171Z,94979.94
2023-04-12T03:10:34.078Z,94970.75
2023-04-12T03:13:01.074Z,94975.69
2023-04-12T03:15:28.434Z,94976.50
2023-04-12T03:17:55.734Z,94973.25
2023-04-12T03:20:25.694Z,94965.84
2023-04-12T03:22:52.628Z,94967.63
2023-04-12T03:25:19.955Z,94940.84
2023-04-12T03:27:46.897Z,94953.22
2023-04-12T03:30:13.979Z,94932.69
2023-04-12T03:32:42.411Z,94927.78
2023-04-12T03:35:10.466Z,94923.19
2023-04-12T03:37:37.394Z,94920.00
2023-04-12T03:40:06.487Z,94914.34
2023-04-12T03:42:34.051Z,94907.84
2023-04-12T03:45:01.477Z,94907.28
2023-04-12T03:47:28.489Z,94901.25
2023-04-12T03:50:10.337Z,94901.03
2023-04-12T03:52:39.092Z,94900.50
2023-04-12T03:55:08.168Z,94903.03
2023-04-12T03:57:35.481Z,94910.72
2023-04-12T04:00:02.881Z,94918.84
2023-04-12T04:02:30.239Z,94897.22
2023-04-12T04:04:57.963Z,94886.16
2023-04-12T04:07:24.905Z,94900.63
2023-04-12T04:09:52.323Z,94903.13
2023-04-12T04:12:19.256Z,94900.47
2023-04-12T04:14:46.292Z,94873.72
2023-04-12T04:17:13.260Z,94896.81
2023-04-12T04:19:40.198Z,94888.34
2023-04-12T04:22:07.251Z,94886.22
2023-04-12T04:24:34.429Z,94885.72
2023-04-12T04:27:01.251Z,94881.38
2023-04-12T04:29:29.393Z,94886.66
2023-04-12T04:31:57.706Z,94892.16
2023-04-12T04:34:25.735Z,94884.38
2023-04-12T04:36:53.032Z,94882.53
2023-04-12T04:39:20.123Z,94882.47
2023-04-12T04:41:47.055Z,94884.94
2023-04-12T04:44:14.642Z,94878.19
2023-04-12T04:46:41.641Z,94882.56
2023-04-12T04:49:08.511Z,94890.13
2023-04-12T04:51:36.978Z,94880.88
2023-04-12T04:54:04.037Z,94873.72
2023-04-12T04:56:31.188Z,94856.13
2023-04-12T04:58:58.527Z,94853.31
2023-04-12T05:01:29.877Z,94851.22
2023-04-12T05:03:57.100Z,94839.03
2023-04-12T05:06:24.316Z,94844.28
2023-04-12T05:08:52.591Z,94837.34
2023-04-12T05:11:20.519Z,94843.25
2023-04-12T05:13:47.516Z,94815.81
2023-04-12T05:16:14.542Z,94829.78
2023-04-12T05:18:41.412Z,94827.16
2023-04-12T05:21:08.315Z,94816.06
2023-04-12T05:23:42.133Z,94814.19
2023-04-12T05:26:09.068Z,94807.97
2023-04-12T05:28:36.694Z,94806.91
2023-04-12T05:31:04.388Z,94800.44
2023-04-12T05:33:33.350Z,94816.19
2023-04-12T05:36:00.924Z,94814.97
2023-04-12T05:38:27.965Z,94825.22
2023-04-12T05:40:54.904Z,94818.16
2023-04-12T05:43:21.818Z,94823.53
2023-04-12T05:45:50.261Z,94820.84
2023-04-12T05:48:18.973Z,94821.38
2023-04-12T05:50:53.019Z,94814.22
2023-04-12T05:53:19.899Z,94817.22
2023-04-12T05:55:46.797Z,94815.72
2023-04-12T05:58:13.973Z,94806.59
2023-04-12T06:00:45.623Z,94810.41
2023-04-12T06:03:12.850Z,94806.88
2023-04-12T06:05:40.271Z,94805.28
2023-04-12T06:08:07.464Z,94804.31
2023-04-12T06:10:34.479Z,94810.63
2023-04-12T06:13:01.392Z,94814.19
2023-04-12T06:15:28.273Z,94806.97
2023-04-12T06:17:55.295Z,94804.38
2023-04-12T06:20:22.204Z,94809.78
2023-04-12T06:22:49.060Z,94798.69
2023-04-12T06:25:16.793Z,94797.28
2023-04-12T06:27:44.348Z,94801.31
2023-04-12T06:30:11.574Z,94795.91
2023-04-12T06:32:39.151Z,94796.22
2023-04-12T06:35:06.377Z,94793.88
2023-04-12T06:37:33.208Z,94787.16
2023-04-12T06:40:00.229Z,94786.66
2023-04-12T06:42:27.085Z,94776.72
2023-04-12T06:44:53.968Z,94781.34
2023-04-12T06:47:22.881Z,94772.13
2023-04-12T06:49:52.750Z,94778.59
2023-04-12T06:52:23.837Z,94763.91
2023-04-12T06:54:50.824Z,94762.81
2023-04-12T06:57:17.788Z,94772.19
2023-04-12T06:59:44.606Z,94773.06
2023-04-12T07:02:12.117Z,94763.25
2023-04-12T07:04:39.121Z,94768.22
2023-04-12T07:07:06.716Z,94750.25
2023-04-12T07:09:33.566Z,94740.47
2023-04-12T07:12:00.822Z,94734.34
2023-04-12T07:14:27.712Z,94726.53
2023-04-12T07:16:54.805Z,94728.44
2023-04-12T07:19:21.826Z,94721.50
2023-04-12T07:21:48.739Z,94709.34
2023-04-12T07:24:15.754Z,94703.47
2023-04-12T07:26:42.612Z,94698.97
2023-04-12T07:29:09.477Z,94697.31
2023-04-12T07:31:36.575Z,94682.50
2023-04-12T07:34:03.657Z,94695.38
2023-04-12T07:36:31.780Z,94691.84
2023-04-12T07:38:59.012Z,94686.09
2023-04-12T07:41:26.260Z,94679.59
2023-04-12T07:43:53.145Z,94690.53
2023-04-12T07:46:19.939Z,94691.84
2023-04-12T07:48:46.772Z,94676.94
2023-04-12T07:51:13.748Z,94676.44
2023-04-12T07:53:42.136Z,94659.47
2023-04-12T07:56:09.132Z,94669.47
2023-04-12T07:58:36.107Z,94656.16
2023-04-12T08:01:02.928Z,94655.28
2023-04-12T08:03:32.748Z,94653.09
2023-04-12T08:06:00.358Z,94657.28
2023-04-12T08:08:27.782Z,94644.06
2023-04-12T08:10:54.884Z,94649.31
2023-04-12T08:13:21.899Z,94652.19
2023-04-12T08:15:49.336Z,94649.56
2023-04-12T08:18:16.374Z,94650.88
2023-04-12T08:20:46.117Z,94650.81
2023-04-12T08:23:13.296Z,94651.13
2023-04-12T08:25:40.249Z,94648.16
2023-04-12T08:28:10.567Z,94647.00
2023-04-12T08:30:37.464Z,94656.28
2023-04-12T08:33:04.559Z,94655.69
2023-04-12T08:35:32.126Z,94653.38
2023-04-12T08:38:00.721Z,94648.28
2023-04-12T08:40:27.639Z,94635.75
2023-04-12T08:42:54.471Z,94641.16
2023-04-12T08:45:21.472Z,94649.09
2023-04-12T08:47:48.575Z,94634.31
2023-04-12T08:50:15.610Z,94635.88
2023-04-12T08:52:43.021Z,94634.06
2023-04-12T08:55:10.734Z,94632.13
2023-04-12T08:57:40.874Z,94626.88
2023-04-12T09:00:09.579Z,94612.84
2023-04-12T09:02:37.544Z,94635.13
2023-04-12T09:05:06.492Z,94608.28
2023-04-12T09:07:33.741Z,94611.88
2023-04-12T09:10:00.744Z,94619.03
2023-04-12T09:12:27.633Z,94602.22
2023-04-12T09:15:20.947Z,94591.16
2023-04-12T09:17:49.812Z,94601.50
2023-04-12T09:20:16.681Z,94608.84
2023-04-12T09:22:47.831Z,94594.63
2023-04-12T09:25:15.094Z,94566.91
2023-04-12T09:27:54.325Z,94582.22
2023-04-12T09:30:21.298Z,94584.94
2023-04-12T09:32:51.269Z,94585.59
2023-04-12T09:35:18.898Z,94590.22
2023-04-12T09:37:45.841Z,94586.38
2023-04-12T09:40:13.768Z,94565.03
2023-04-12T09:42:54.933Z,94577.84
2023-04-12T09:45:26.757Z,94574.50
2023-04-12T09:47:54.367Z,94582.94
2023-04-12T09:50:30.828Z,94582.88
2023-04-12T09:52:58.184Z,94579.09
2023-04-12T09:55:26.688Z,94572.31
2023-04-12T09:57:54.997Z,94570.06
2023-04-12T10:00:27.303Z,94573.63
2023-04-12T10:02:55.756Z,94556.69
2023-04-12T10:05:26.999Z,94561.81
2023-04-12T10:07:55.398Z,94564.25
2023-04-12T10:10:22.950Z,94560.97
2023-04-12T10:12:50.190Z,94565.28
2023-04-12T10:15:21.979Z,94552.41
2023-04-12T10:17:53.329Z,94560.63
2023-04-12T10:20:21.898Z,94555.41
2023-04-12T10:22:52.816Z,94541.13
2023-04-12T10:25:21.040Z,94539.16
2023-04-12T10:27:47.916Z,94546.91
2023-04-12T10:30:27.903Z,94549.84
2023-04-12T10:33:03.934Z,94538.13
2023-04-12T10:35:50.039Z,94534.19
2023-04-12T10:38:17.212Z,94540.13
2023-04-12T10:41:19.026Z,94539.25
2023-04-12T10:43:47.270Z,94525.47
2023-04-12T10:46:46.411Z,94538.28
2023-04-12T10:49:17.315Z,94523.88
2023-04-12T10:52:02.891Z,94528.63
2023-04-12T10:54:35.497Z,94518.03
2023-04-12T10:57:05.767Z,94524.38
2023-04-12T10:59:54.874Z,94522.31
2023-04-12T11:02:22.078Z,94519.47
2023-04-12T11:05:11.328Z,94521.25
2023-04-12T11:07:42.728Z,94541.41
2023-04-12T11:10:17.136Z,94539.81
2023-04-12T11:12:50.896Z,94530.66
2023-04-12T11:15:17.967Z,94530.56
2023-04-12T11:17:54.567Z,94530.53
2023-04-12T11:20:21.629Z,94518.94
2023-04-12T11:22:48.725Z,94539.28
2023-04-12T11:25:17.347Z,94548.25
2023-04-12T11:27:55.351Z,94559.47
2023-04-12T11:30:23.882Z,94554.97
2023-04-12T11:32:50.829Z,94555.72
2023-04-12T11:35:20.619Z,94554.81
2023-04-12T11:37:47.643Z,94552.34
2023-04-12T11:40:14.770Z,94554.84
2023-04-12T11:42:41.742Z,94559.06
2023-04-12T11:45:17.265Z,94557.19
2023-04-12T11:47:46.691Z,94566.06
2023-04-12T11:50:13.733Z,94568.41
2023-04-12T11:52:41.589Z,94577.59
2023-04-12T11:55:11.491Z,94579.72
2023-04-12T11:57:38.945Z,94570.47
2023-04-12T12:00:07.157Z,94584.56
2023-04-12T12:02:43.165Z,94577.69
2023-04-12T12:05:13.646Z,94590.28
2023-04-12T12:07:42.067Z,94584.47
2023-04-12T12:10:09.544Z,94598.75
2023-04-12T12:12:36.478Z,94600.50
2023-04-12T12:15:03.549Z,94590.50
2023-04-12T12:17:30.988Z,94579.84
2023-04-12T12:19:59.739Z,94586.59
2023-04-12T12:22:26.506Z,94581.88
2023-04-12T12:24:56.976Z,94574.03
2023-04-12T12:27:25.356Z,94580.72
2023-04-12T12:29:53.873Z,94575.94
2023-04-12T12:32:23.725Z,94573.94
2023-04-12T12:34:55.900Z,94575.91
2023-04-12T12:37:27.462Z,94562.13
2023-04-12T12:40:13.848Z,94561.13
2023-04-12T12:42:55.664Z,94568.44
2023-04-12T12:45:24.327Z,94553.41
2023-04-12T12:47:56.275Z,94556.31
2023-04-12T12:50:25.867Z,94551.16
2023-04-12T12:52:53.144Z,94539.84
2023-04-12T12:55:21.501Z,94541.50
2023-04-12T12:58:05.964Z,94536.16
2023-04-12T13:00:35.246Z,94538.41
2023-04-12T13:03:02.803Z,94547.72
2023-04-12T13:05:30.668Z,94530.53
2023-04-12T13:07:57.536Z,94536.53
2023-04-12T13:10:24.456Z,94544.97
2023-04-12T13:12:51.550Z,94539.91
2023-04-12T13:15:23.283Z,94544.53
2023-04-12T13:17:54.284Z,94544.53
2023-04-12T13:20:22.311Z,94534.16
2023-04-12T13:22:50.255Z,94542.34
2023-04-12T13:25:17.221Z,94534.28
2023-04-12T13:27:44.113Z,94538.66
2023-04-12T13:30:11.899Z,94526.72
2023-04-12T13:32:38.993Z,94532.47
2023-04-12T13:35:06.615Z,94521.13
2023-04-12T13:37:36.562Z,94536.03
2023-04-12T13:40:04.893Z,94540.16
2023-04-12T13:42:32.333Z,94527.00
2023-04-12T13:44:59.599Z,94507.78
2023-04-12T13:47:27.429Z,94502.28
2023-04-12T13:49:58.060Z,94506.81
2023-04-12T13:52:25.013Z,94503.63
2023-04-12T13:54:51.862Z,94505.91
2023-04-12T13:57:18.783Z,94506.56
2023-04-12T13:59:46.006Z,94500.31
2023-04-12T14:02:13.007Z,94506.28
2023-04-12T14:04:50.849Z,94484.16
2023-04-12T14:07:18.190Z,94484.56
2023-04-12T14:09:44.984Z,94484.44
2023-04-12T14:12:12.080Z,94491.25
2023-04-12T14:14:39.018Z,94500.91
2023-04-12T14:17:06.055Z,94491.75
2023-04-12T14:19:32.995Z,94490.75
2023-04-12T14:22:00.130Z,94496.88
2023-04-12T14:24:27.264Z,94482.81
2023-04-12T14:26:54.590Z,94492.22
2023-04-12T14:29:21.529Z,94486.50
2023-04-12T14:31:48.443Z,94481.31
2023-04-12T14:34:15.410Z,94484.84
2023-04-12T14:36:42.534Z,94471.81
2023-04-12T14:39:11.193Z,94475.53
2023-04-12T14:41:40.971Z,94471.56
2023-04-12T14:44:07.801Z,94470.16
2023-04-12T14:46:34.650Z,94468.84
2023-04-12T14:49:01.758Z,94450.88
2023-04-12T14:51:29.427Z,94464.28
2023-04-12T14:53:57.072Z,94453.19
2023-04-12T14:56:30.980Z,94444.28
2023-04-12T14:58:58.673Z,94447.28
2023-04-12T15:01:26.151Z,94440.22
2023-04-12T15:03:55.572Z,94438.13
2023-04-12T15:06:23.526Z,94437.81
2023-04-12T15:08:55.356Z,94440.59
2023-04-12T15:11:27.590Z,94445.78
2023-04-12T15:13:55.532Z,94441.41
2023-04-12T15:16:22.817Z,94449.41
2023-04-12T15:18:50.632Z,94446.66
2023-04-12T15:21:17.715Z,94433.63
2023-04-12T15:23:45.187Z,94446.84
2023-04-12T15:26:15.157Z,94454.28
2023-04-12T15:28:42.619Z,94460.84
2023-04-12T15:31:12.117Z,94464.78
2023-04-12T15:33:39.426Z,94451.38
2023-04-12T15:36:06.772Z,94469.09
2023-04-12T15:38:40.477Z,94462.34
2023-04-12T15:41:07.729Z,94472.63
2023-04-12T15:43:34.537Z,94478.81
2023-04-12T15:46:02.572Z,94488.28
2023-04-12T15:48:29.893Z,94487.50
2023-04-12T15:50:56.815Z,94496.31
2023-04-12T15:53:25.265Z,94502.31
2023-04-12T15:55:55.468Z,94500.44
2023-04-12T15:58:27.505Z,94503.34
2023-04-12T16:00:54.698Z,94503.09
2023-04-12T16:03:26.474Z,94505.53
2023-04-12T16:05:54.337Z,94524.69
2023-04-12T16:08:22.610Z,94519.09
2023-04-12T16:10:50.835Z,94535.06
2023-04-12T16:13:18.818Z,94535.88
2023-04-12T16:15:47.174Z,94535.06
2023-04-12T16:18:14.133Z,94539.97
2023-04-12T16:20:41.204Z,94549.91
2023-04-12T16:23:08.454Z,94550.66
2023-04-12T16:25:36.161Z,94554.56
2023-04-12T16:28:03.988Z,94538.88
2023-04-12T16:30:33.924Z,94546.09
2023-04-12T16:33:00.991Z,94548.16
2023-04-12T16:35:28.007Z,94547.16
2023-04-12T16:37:54.882Z,94542.88
2023-04-12T16:40:22.700Z,94546.97
2023-04-12T16:42:49.580Z,94550.75
2023-04-12T16:45:16.589Z,94545.13
2023-04-12T16:47:43.521Z,94563.22
2023-04-12T16:50:13.005Z,94544.63
2023-04-12T16:52:41.660Z,94566.03
2023-04-12T16:55:13.180Z,94567.91
2023-04-12T16:57:48.121Z,94567.16
2023-04-12T17:00:29.376Z,94575.78
2023-04-12T17:02:56.596Z,94568.50
2023-04-12T17:05:25.040Z,94555.25
2023-04-12T17:07:54.455Z,94553.94
2023-04-12T17:10:21.883Z,94569.34
2023-04-12T17:12:53.326Z,94570.97
2023-04-12T17:15:25.654Z,94556.38
2023-04-12T17:17:59.933Z,94558.56
2023-04-12T17:20:27.579Z,94553.41
2023-04-12T17:22:55.115Z,94551.53
2023-04-12T17:25:23.058Z,94549.13
2023-04-12T17:27:53.905Z,94531.00
2023-04-12T17:30:20.851Z,94537.47
2023-04-12T17:32:48.073Z,94539.66
2023-04-12T17:35:17.989Z,94539.63
2023-04-12T17:37:44.997Z,94530.44
2023-04-12T17:40:12.840Z,94539.38
2023-04-12T17:42:41.319Z,94551.53
2023-04-12T17:45:11.335Z,94548.03
2023-04-12T17:47:39.767Z,94529.38
2023-04-12T17:50:09.088Z,94547.19
2023-04-12T17:52:36.302Z,94538.84
2023-04-12T17:55:05.420Z,94532.63
2023-04-12T17:57:32.292Z,94549.09
2023-04-12T17:59:59.130Z,94539.38
2023-04-12T18:02:26.870Z,94550.16
2023-04-12T18:04:54.345Z,94520.44
2023-04-12T18:07:21.767Z,94528.81
2023-04-12T18:09:49.095Z,94535.00
2023-04-12T18:12:16.057Z,94538.00
2023-04-12T18:14:42.889Z,94532.59
2023-04-12T18:17:10.931Z,94539.06
2023-04-12T18:19:37.900Z,94544.19
2023-04-12T18:22:04.811Z,94550.41
2023-04-12T18:24:31.768Z,94563.94
2023-04-12T18:26:59.546Z,94564.47
2023-04-12T18:29:26.508Z,94558.53
2023-04-12T18:31:53.494Z,94563.13
2023-04-12T18:34:20.501Z,94565.03
2023-04-12T18:36:47.767Z,94579.34
2023-04-12T18:39:14.789Z,94580.38
2023-04-12T18:41:41.691Z,94591.78
2023-04-12T18:44:09.299Z,94592.81
2023-04-12T18:46:36.658Z,94594.22
2023-04-12T18:49:04.805Z,94604.47
2023-04-12T18:51:33.103Z,94606.09
2023-04-12T18:54:00.868Z,94605.00
2023-04-12T18:56:28.300Z,94619.88
2023-04-12T18:58:56.437Z,94616.63
2023-04-12T19:01:24.993Z,94623.66
2023-04-12T19:03:52.387Z,94628.25
2023-04-12T19:06:19.749Z,94625.00
2023-04-12T19:08:46.777Z,94626.66
2023-04-12T19:11:13.784Z,94639.09
2023-04-12T19:13:40.809Z,94640.69
2023-04-12T19:16:08.152Z,94637.19
2023-04-12T19:18:35.428Z,94634.47
2023-04-12T19:21:03.101Z,94632.06
2023-04-12T19:23:30.569Z,94622.28
2023-04-12T19:26:00.340Z,94626.63
2023-04-12T19:28:27.812Z,94631.78
2023-04-12T19:30:57.290Z,94635.56
2023-04-12T19:33:24.959Z,94629.84
2023-04-12T19:35:52.357Z,94641.47
2023-04-12T19:38:21.264Z,94638.47
2023-04-12T19:40:48.515Z,94646.06
2023-04-12T19:43:17.035Z,94651.47
2023-04-12T19:45:44.571Z,94649.28
2023-04-12T19:48:12.910Z,94657.09
2023-04-12T19:50:40.044Z,94663.06
2023-04-12T19:53:07.036Z,94678.50
2023-04-12T19:55:34.217Z,94677.69
2023-04-12T19:58:01.764Z,94666.59
2023-04-12T20:00:30.560Z,94675.00
2023-04-12T20:02:57.539Z,94673.13
2023-04-12T20:05:24.611Z,94683.94
2023-04-12T20:07:55.710Z,94666.63
2023-04-12T20:10:22.646Z,94674.78
2023-04-12T20:12:49.667Z,94678.56
2023-04-12T20:15:17.872Z,94686.16
2023-04-12T20:17:46.115Z,94700.22
2023-04-12T20:20:14.560Z,94723.69
2023-04-12T20:22:42.382Z,94755.84
2023-04-12T20:25:13.511Z,94786.44
2023-04-12T20:27:41.388Z,94818.56
2023-04-12T20:30:11.191Z,94827.66
2023-04-12T20:32:38.246Z,94828.59
2023-04-12T20:35:05.421Z,94835.16
2023-04-12T20:37:32.967Z,94832.53
2023-04-12T20:39:59.967Z,94842.56
2023-04-12T20:42:27.112Z,94848.69
2023-04-12T20:44:53.956Z,94829.94
2023-04-12T20:47:21.524Z,94827.00
2023-04-12T20:49:48.343Z,94816.47
2023-04-12T20:52:18.978Z,94828.13
2023-04-12T20:54:48.441Z,94823.75
2023-04-12T20:57:20.153Z,94821.56
2023-04-12T20:59:47.153Z,94824.25
2023-04-12T21:02:16.782Z,94831.25
2023-04-12T21:04:45.493Z,94833.94
2023-04-12T21:07:12.914Z,94840.09
2023-04-12T21:09:39.925Z,94833.81
2023-04-12T21:12:08.953Z,94843.97
2023-04-12T21:14:37.871Z,94847.16
2023-04-12T21:17:05.181Z,94850.06
2023-04-12T21:19:32.043Z,94847.97
2023-04-12T21:21:59.534Z,94863.28
2023-04-12T21:24:26.845Z,94863.28
2023-04-12T21:26:57.246Z,94865.50
2023-04-12T21:29:24.102Z,94868.69
2023-04-12T21:31:51.179Z,94860.91
2023-04-12T21:34:20.113Z,94852.91
2023-04-12T21:36:47.225Z,94860.25
2023-04-12T21:39:14.076Z,94867.25
2023-04-12T21:41:41.058Z,94872.72
2023-04-12T21:44:08.282Z,94863.56
2023-04-12T21:46:35.212Z,94859.56
2023-04-12T21:49:02.159Z,94859.25
2023-04-12T21:51:29.085Z,94860.63
2023-04-12T21:53:56.190Z,94862.56
2023-04-12T21:56:23.085Z,94863.69
2023-04-12T21:58:50.289Z,94864.06
2023-04-12T22:01:17.209Z,94865.44
2023-04-12T22:03:45.773Z,94862.25
2023-04-12T22:06:12.836Z,94859.56
2023-04-12T22:08:44.308Z,94862.00
2023-04-12T22:11:12.043Z,94859.50
2023-04-12T22:13:41.982Z,94860.63
2023-04-12T22:16:13.277Z,94872.06
2023-04-12T22:18:41.374Z,94859.09
2023-04-12T22:21:08.537Z,94865.84
2023-04-12T22:23:38.846Z,94881.34
2023-04-12T22:26:09.081Z,94876.97
2023-04-12T22:28:38.009Z,94891.91
2023-04-12T22:31:06.007Z,94893.28
2023-04-12T22:33:33.908Z,94891.91
2023-04-12T22:36:02.619Z,94878.94
2023-04-12T22:38:29.563Z,94887.56
2023-04-12T22:41:02.196Z,94891.59
2023-04-12T22:43:42.399Z,94891.81
2023-04-12T22:46:16.258Z,94899.41
2023-04-12T22:48:48.017Z,94898.34
2023-04-12T22:51:15.439Z,94894.66
2023-04-12T22:53:43.675Z,94891.97
2023-04-12T22:56:11.474Z,94889.34
2023-04-12T22:58:40.501Z,94895.88
2023-04-12T23:01:07.544Z,94896.38
2023-04-12T23:03:35.047Z,94891.97
2023-04-12T23:06:02.312Z,94895.41
2023-04-12T23:08:29.412Z,94889.53
2023-04-12T23:11:03.233Z,94894.13
2023-04-12T23:13:33.998Z,94899.88
2023-04-12T23:16:05.746Z,94895.88
2023-04-12T23:18:33.159Z,94891.59
2023-04-12T23:21:01.788Z,94884.78
2023-04-12T23:23:28.772Z,94886.59
2023-04-12T23:25:55.664Z,94882.75
2023-04-12T23:28:24.597Z,94880.06
2023-04-12T23:30:51.570Z,94873.38
2023-04-12T23:33:20.693Z,94875.50
2023-04-12T23:35:53.064Z,94876.56
2023-04-12T23:38:33.641Z,94880.34
2023-04-12T23:41:02.622Z,94879.19
2023-04-12T23:43:30.126Z,94876.13
2023-04-12T23:45:57.368Z,94886.38
2023-04-12T23:48:24.638Z,94893.31
2023-04-12T23:50:51.745Z,94894.38
2023-04-12T23:53:18.924Z,94881.50
2023-04-12T23:55:53.742Z,94887.75
2023-04-12T23:58:21.220Z,94882.13
